Time;durP1;ratioP1;P1;durP2;ratioP2;P2;SDS_P1;SDS_P2;PMS_P1;PMS_P2;Temp;Humidity;BMP_temperature;BMP_pressure;BME280_temperature;BME280_humidity;BME280_pressure;Samples;Min_cycle;Max_cycle;Signal;HPM_P1;HPM_P2
2021/12/29 00:01:46;;;;;;;0.20;0.20;;;;;;;7.76;89.12;100280.06;5043479;28;20091;-77
2021/12/29 00:04:12;;;;;;;0.27;0.27;;;;;;;7.74;89.22;100286.97;5046847;28;20036;-80
2021/12/29 00:06:38;;;;;;;0.10;0.10;;;;;;;7.77;89.07;100276.63;5038757;28;20017;-73
2021/12/29 00:09:03;;;;;;;0.20;0.20;;;;;;;7.77;89.15;100281.84;5050082;28;20465;-74
2021/12/29 00:11:29;;;;;;;0.37;0.37;;;;;;;7.78;88.89;100281.00;5035612;28;20060;-79
2021/12/29 00:13:54;;;;;;;0.23;0.23;;;;;;;7.77;89.04;100284.44;5041577;28;20033;-74
2021/12/29 00:16:20;;;;;;;0.30;0.30;;;;;;;7.83;89.00;100273.31;5037429;28;20179;-74
2021/12/29 00:18:45;;;;;;;0.20;0.20;;;;;;;7.83;88.88;100302.88;5035652;28;20487;-77
2021/12/29 00:21:11;;;;;;;0.20;0.20;;;;;;;7.83;88.67;100304.59;5046920;28;20311;-76
2021/12/29 00:23:37;;;;;;;0.30;0.30;;;;;;;7.79;88.78;100306.22;5039707;28;20029;-74
2021/12/29 00:26:03;;;;;;;0.30;0.30;;;;;;;7.80;88.91;100312.34;5037492;28;20037;-74
2021/12/29 00:28:28;;;;;;;0.30;0.30;;;;;;;7.78;88.69;100314.00;5035251;28;20041;-75
2021/12/29 00:30:53;;;;;;;0.20;0.20;;;;;;;7.79;88.93;100326.22;5037724;28;20036;-76
2021/12/29 00:33:19;;;;;;;0.30;0.30;;;;;;;7.78;88.68;100325.31;5047934;28;20043;-78
2021/12/29 00:35:46;;;;;;;0.20;0.20;;;;;;;7.74;88.68;100310.44;5046908;28;20017;-73
2021/12/29 00:38:11;;;;;;;0.20;0.20;;;;;;;7.77;88.90;100315.72;5053368;28;20029;-72
2021/12/29 00:40:38;;;;;;;0.30;0.30;;;;;;;7.75;88.80;100324.31;5037655;28;20049;-78
2021/12/29 00:43:05;;;;;;;0.30;0.30;;;;;;;7.77;88.90;100328.75;5049134;28;20042;-80
2021/12/29 00:45:33;;;;;;;0.30;0.30;;;;;;;7.82;88.43;100327.19;5035270;28;20403;-73
2021/12/29 00:47:58;;;;;;;0.40;0.40;;;;;;;7.83;88.25;100333.28;5037034;28;20095;-77
2021/12/29 00:50:24;;;;;;;0.37;0.37;;;;;;;7.83;88.34;100330.66;5038660;28;20045;-73
2021/12/29 00:52:50;;;;;;;0.27;0.27;;;;;;;7.84;88.18;100328.13;5041306;28;20261;-73
2021/12/29 00:55:16;;;;;;;0.30;0.30;;;;;;;7.83;88.00;100330.66;5046887;28;20029;-73
2021/12/29 00:57:42;;;;;;;0.20;0.20;;;;;;;7.82;88.00;100345.44;5046508;28;20430;-80
2021/12/29 01:00:12;;;;;;;0.20;0.20;;;;;;;7.79;88.01;100362.69;5046849;28;20049;-76
2021/12/29 01:02:38;;;;;;;0.40;0.40;;;;;;;7.79;88.19;100357.50;5047243;28;20025;-75
2021/12/29 01:05:04;;;;;;;0.30;0.30;;;;;;;7.78;87.88;100359.19;5045885;28;20086;-78
2021/12/29 01:07:30;;;;;;;0.30;0.30;;;;;;;7.78;87.52;100372.22;5044340;28;20045;-77
2021/12/29 01:09:55;;;;;;;0.30;0.30;;;;;;;7.79;87.91;100393.97;5042002;28;20056;-76
2021/12/29 01:12:20;;;;;;;0.20;0.20;;;;;;;7.83;87.83;100394.13;5045681;28;20056;-77
2021/12/29 01:14:53;;;;;;;0.20;0.20;;;;;;;7.83;87.78;100393.22;5044503;28;20040;-78
2021/12/29 01:17:19;;;;;;;0.30;0.30;;;;;;;7.83;87.84;100388.91;5043538;28;20458;-75
2021/12/29 01:19:44;;;;;;;0.20;0.20;;;;;;;7.80;87.89;100401.81;5037350;28;20029;-77
2021/12/29 01:22:10;;;;;;;0.40;0.40;;;;;;;7.79;87.85;100400.06;5044488;28;20037;-77
2021/12/29 01:24:36;;;;;;;0.40;0.40;;;;;;;7.77;88.09;100408.66;5047996;28;20450;-76
2021/12/29 01:27:01;;;;;;;0.30;0.30;;;;;;;7.79;88.17;100409.63;5036546;28;20077;-74
2021/12/29 01:29:28;;;;;;;0.30;0.30;;;;;;;7.79;88.11;100417.44;5035754;28;20375;-77
2021/12/29 01:31:54;;;;;;;0.20;0.20;;;;;;;7.77;88.27;100408.66;5047822;28;20550;-76
2021/12/29 01:34:20;;;;;;;0.30;0.30;;;;;;;7.74;88.11;100437.25;5037100;28;20052;-79
2021/12/29 01:36:45;;;;;;;0.20;0.20;;;;;;;7.71;88.45;100435.41;5048630;28;20048;-75
2021/12/29 01:39:13;;;;;;;0.30;0.30;;;;;;;7.72;88.45;100437.19;5048273;28;20104;-76
2021/12/29 01:41:39;;;;;;;0.30;0.30;;;;;;;7.72;88.45;100446.75;5036375;28;20033;-79
2021/12/29 01:44:08;;;;;;;0.30;0.30;;;;;;;7.70;88.55;100444.97;5035859;28;20037;-77
2021/12/29 01:46:34;;;;;;;0.30;0.30;;;;;;;7.69;89.22;100444.91;5052738;28;20074;-76
2021/12/29 01:48:59;;;;;;;0.20;0.20;;;;;;;7.71;88.68;100443.22;5041598;28;20025;-76
2021/12/29 01:51:25;;;;;;;0.30;0.30;;;;;;;7.70;88.63;100452.78;5045473;28;20130;-78
2021/12/29 01:54:03;;;;;;;0.30;0.30;;;;;;;7.69;88.80;100448.41;5035623;28;20028;-76
2021/12/29 01:56:32;;;;;;;0.30;0.30;;;;;;;7.66;89.11;100444.81;5044701;28;20045;-75
2021/12/29 01:58:57;;;;;;;0.30;0.30;;;;;;;7.69;89.19;100452.72;5040604;28;20043;-78
2021/12/29 02:01:23;;;;;;;0.10;0.10;;;;;;;7.66;89.47;100457.84;5040535;28;20357;-79
2021/12/29 02:03:50;;;;;;;0.30;0.30;;;;;;;7.64;89.59;100457.78;5040393;28;20363;-77
2021/12/29 02:06:15;;;;;;;0.20;0.20;;;;;;;7.66;89.56;100469.13;5061004;28;20124;-77
2021/12/29 02:08:41;;;;;;;0.10;0.10;;;;;;;7.64;89.81;100467.31;5060539;28;20060;-78
2021/12/29 02:11:07;;;;;;;0.20;0.20;;;;;;;7.62;89.79;100472.50;5059812;28;20024;-78
2021/12/29 02:13:33;;;;;;;0.20;0.20;;;;;;;7.61;89.98;100465.50;5046746;28;20091;-76
2021/12/29 02:15:59;;;;;;;0.30;0.30;;;;;;;7.62;89.86;100468.97;5043751;28;20264;-78
2021/12/29 02:18:25;;;;;;;0.27;0.27;;;;;;;7.63;90.05;100469.06;5060180;28;20068;-77
2021/12/29 02:20:55;;;;;;;0.23;0.23;;;;;;;7.61;89.90;100478.53;5050563;28;20086;-78
2021/12/29 02:23:34;;;;;;;0.20;0.20;;;;;;;7.63;90.10;100482.06;5038897;28;20029;-77
2021/12/29 02:25:59;;;;;;;0.17;0.17;;;;;;;7.63;90.02;100486.38;5046112;28;20037;-77
2021/12/29 02:28:33;;;;;;;0.20;0.20;;;;;;;7.63;90.11;100474.25;5043706;28;20078;-76
2021/12/29 02:30:59;;;;;;;0.10;0.10;;;;;;;7.63;89.97;100473.34;5044272;28;20435;-79
2021/12/29 02:33:26;;;;;;;0.30;0.30;;;;;;;7.63;90.17;100469.06;5042608;28;20363;-76
2021/12/29 02:35:52;;;;;;;0.10;0.10;;;;;;;7.64;89.99;100475.13;5048540;28;20355;-77
2021/12/29 02:38:26;;;;;;;0.20;0.20;;;;;;;7.61;89.82;100475.94;5046725;28;20049;-78
2021/12/29 02:40:54;;;;;;;0.20;0.20;;;;;;;7.64;90.05;100488.16;5047285;28;20036;-74
2021/12/29 02:43:22;;;;;;;0.20;0.20;;;;;;;7.64;89.85;100494.28;5045919;28;20277;-77
2021/12/29 02:45:50;;;;;;;0.20;0.20;;;;;;;7.61;89.84;100499.38;5048987;28;20355;-75
2021/12/29 02:48:17;;;;;;;0.20;0.20;;;;;;;7.62;89.94;100508.97;5048083;28;20040;-75
2021/12/29 02:50:44;;;;;;;0.10;0.10;;;;;;;7.60;89.93;100512.34;5047385;28;20029;-74
2021/12/29 02:53:09;;;;;;;0.30;0.30;;;;;;;7.58;89.88;100514.03;5045509;28;20112;-74
2021/12/29 02:55:35;;;;;;;0.20;0.20;;;;;;;7.57;90.13;100510.53;5039904;28;20109;-76
2021/12/29 02:58:00;;;;;;;0.20;0.20;;;;;;;7.55;90.69;100525.22;5050054;28;20040;-75
2021/12/29 03:00:26;;;;;;;0.23;0.23;;;;;;;7.56;90.31;100530.47;5039250;28;20120;-76
2021/12/29 03:02:51;;;;;;;0.20;0.20;;;;;;;7.55;90.31;100538.25;5039695;28;20374;-77
2021/12/29 03:05:18;;;;;;;0.20;0.20;;;;;;;7.53;90.39;100535.59;5039785;28;20100;-76
2021/12/29 03:07:43;;;;;;;0.10;0.10;;;;;;;7.54;90.44;100554.72;5038747;28;20013;-77
2021/12/29 03:10:09;;;;;;;0.20;0.20;;;;;;;7.52;90.43;100556.34;5040492;28;20255;-77
2021/12/29 03:12:34;;;;;;;0.20;0.20;;;;;;;7.52;90.53;100557.25;5041078;28;20088;-76
2021/12/29 03:15:00;;;;;;;0.20;0.20;;;;;;;7.55;90.57;100561.69;5039631;28;20119;-75
2021/12/29 03:17:25;;;;;;;0.20;0.20;;;;;;;7.51;90.58;100562.41;5039394;28;20029;-78
2021/12/29 03:19:51;;;;;;;0.30;0.30;;;;;;;7.50;90.28;100558.03;5045038;28;20091;-76
2021/12/29 03:22:16;;;;;;;0.20;0.20;;;;;;;7.55;90.57;100570.38;5059202;28;20036;-77
2021/12/29 03:24:42;;;;;;;0.20;0.20;;;;;;;7.51;90.51;100565.91;5050501;28;20073;-79
2021/12/29 03:27:07;;;;;;;0.20;0.20;;;;;;;7.49;90.73;100567.59;5038658;28;20379;-77
2021/12/29 03:29:32;;;;;;;0.20;0.20;;;;;;;7.48;90.49;100570.13;5038591;28;20040;-76
2021/12/29 03:32:00;;;;;;;0.37;0.37;;;;;;;7.47;90.66;100578.78;5039148;28;20307;-81
2021/12/29 03:34:25;;;;;;;0.10;0.10;;;;;;;7.45;90.53;100570.00;5038575;28;20091;-77
2021/12/29 03:36:50;;;;;;;0.20;0.20;;;;;;;7.48;90.52;100594.44;5021453;28;20315;-78
2021/12/29 03:39:17;;;;;;;0.20;0.20;;;;;;;7.47;90.17;100595.28;5039051;28;20040;-78
2021/12/29 03:41:42;;;;;;;0.10;0.10;;;;;;;7.45;90.39;100594.34;5040257;28;20317;-77
2021/12/29 03:44:07;;;;;;;0.20;0.20;;;;;;;7.47;90.30;100607.44;5039160;28;20112;-78
2021/12/29 03:46:33;;;;;;;0.20;0.20;;;;;;;7.44;90.25;100605.59;5038137;28;20041;-79
2021/12/29 03:48:59;;;;;;;0.20;0.20;;;;;;;7.42;90.24;100602.94;5038531;28;20029;-78
2021/12/29 03:51:24;;;;;;;0.20;0.20;;;;;;;7.41;90.32;100603.75;5038949;28;20029;-76
2021/12/29 03:53:50;;;;;;;0.20;0.20;;;;;;;7.45;90.36;100599.56;5038984;28;20115;-79
2021/12/29 03:56:15;;;;;;;0.10;0.10;;;;;;;7.46;90.18;100603.94;5047219;28;20398;-79
2021/12/29 03:58:41;;;;;;;0.20;0.20;;;;;;;7.45;90.21;100606.47;5058743;28;20107;-77
2021/12/29 04:01:11;;;;;;;0.10;0.10;;;;;;;7.45;90.06;100609.06;5058161;28;20028;-79
2021/12/29 04:03:37;;;;;;;0.10;0.10;;;;;;;7.41;90.10;100614.19;5048197;28;20044;-79
2021/12/29 04:06:03;;;;;;;0.30;0.30;;;;;;;7.40;90.33;100609.81;5031825;28;20033;-82
2021/12/29 04:08:29;;;;;;;0.20;0.20;;;;;;;7.40;90.03;100607.19;5058439;28;20054;-79
2021/12/29 04:10:54;;;;;;;0.20;0.20;;;;;;;7.41;90.01;100611.56;5057813;28;20306;-77
2021/12/29 04:13:20;;;;;;;0.20;0.20;;;;;;;7.40;90.32;100608.91;5053954;28;20426;-80
2021/12/29 04:15:45;;;;;;;0.20;0.20;;;;;;;7.41;90.16;100608.09;5038371;28;20116;-77
2021/12/29 04:18:55;;;;;;;0.30;0.30;;;;;;;7.39;90.21;100615.84;5038591;28;20071;-79
2021/12/29 04:21:04;;;;;;;0.20;0.20;;;;;;;7.37;90.08;100614.00;5036498;28;20061;-77
2021/12/29 04:23:34;;;;;;;0.10;0.10;;;;;;;7.35;90.18;100613.06;5037533;28;20179;-76
2021/12/29 04:26:02;;;;;;;0.30;0.30;;;;;;;7.31;90.45;100625.09;5038916;28;20396;-81
2021/12/29 04:28:28;;;;;;;0.20;0.20;;;;;;;7.28;90.32;100625.84;5049729;28;20029;-82
2021/12/29 04:30:57;;;;;;;0.10;0.10;;;;;;;7.29;90.54;100632.84;5040464;28;20033;-79
2021/12/29 04:33:23;;;;;;;0.30;0.30;;;;;;;7.27;90.41;100639.72;5058262;28;20029;-80
2021/12/29 04:35:49;;;;;;;0.10;0.10;;;;;;;7.26;90.65;100640.53;5047549;28;20108;-81
2021/12/29 04:38:14;;;;;;;0.20;0.20;;;;;;;7.26;90.32;100644.84;5038505;28;20109;-80
2021/12/29 04:40:40;;;;;;;0.20;0.20;;;;;;;7.24;90.63;100651.72;5038408;28;20060;-80
2021/12/29 04:43:05;;;;;;;0.20;0.20;;;;;;;7.22;90.66;100651.66;5041639;28;20086;-81
2021/12/29 04:45:32;;;;;;;0.30;0.30;;;;;;;7.24;90.51;100652.59;5056139;28;20063;-80
2021/12/29 04:47:58;;;;;;;0.10;0.10;;;;;;;7.24;90.85;100663.00;5060982;28;20100;-80
2021/12/29 04:50:30;;;;;;;0.20;0.20;;;;;;;7.23;90.61;100670.78;5063246;28;20035;-80
2021/12/29 04:53:00;;;;;;;0.20;0.20;;;;;;;7.21;90.70;100673.31;5066349;28;20304;-79
2021/12/29 04:55:27;;;;;;;0.20;0.20;;;;;;;7.20;90.55;100666.34;5044544;28;20033;-76
2021/12/29 04:57:52;;;;;;;0.20;0.20;;;;;;;7.20;90.59;100671.56;5053208;28;20025;-79
2021/12/29 05:00:21;;;;;;;0.10;0.10;;;;;;;7.20;90.36;100668.94;5063643;28;20028;-79
2021/12/29 05:02:46;;;;;;;0.20;0.20;;;;;;;7.19;90.20;100674.09;5069190;28;20060;-79
2021/12/29 05:05:21;;;;;;;0.30;0.30;;;;;;;7.20;90.44;100674.16;5067137;28;20047;-79
2021/12/29 05:10:32;;;;;;;0.13;0.13;;;;;;;7.19;90.22;100679.28;5037788;28;20048;-81
2021/12/29 05:12:57;;;;;;;0.20;0.20;;;;;;;7.20;90.37;100670.66;5038003;28;20043;-81
2021/12/29 05:15:23;;;;;;;0.20;0.20;;;;;;;7.18;90.53;100675.81;5036592;28;21002;-80
2021/12/29 05:17:48;;;;;;;0.20;0.20;;;;;;;7.21;90.42;100669.84;5037934;28;20045;-79
2021/12/29 05:20:13;;;;;;;0.20;0.20;;;;;;;7.19;90.28;100676.69;5037055;28;20384;-80
2021/12/29 05:22:39;;;;;;;0.20;0.20;;;;;;;7.18;90.30;100674.91;5037531;28;20265;-81
2021/12/29 05:25:04;;;;;;;0.20;0.20;;;;;;;7.20;90.28;100684.56;5037445;28;20033;-79
2021/12/29 05:27:30;;;;;;;0.20;0.20;;;;;;;7.18;90.29;100682.72;5037511;28;20334;-79
2021/12/29 05:29:55;;;;;;;0.20;0.20;;;;;;;7.18;90.18;100694.06;5047564;28;20059;-79
2021/12/29 05:32:21;;;;;;;0.20;0.20;;;;;;;7.18;90.28;100693.16;5057350;28;20288;-81
2021/12/29 05:34:46;;;;;;;0.20;0.20;;;;;;;7.15;90.24;100687.00;5057126;28;20337;-79
2021/12/29 05:37:11;;;;;;;0.30;0.30;;;;;;;7.13;90.30;100686.06;5045801;28;20034;-80
2021/12/29 05:39:37;;;;;;;0.20;0.20;;;;;;;7.12;90.38;100680.78;5036466;28;20079;-79
2021/12/29 05:42:02;;;;;;;0.20;0.20;;;;;;;7.13;90.41;100680.84;5037074;28;20292;-79
2021/12/29 05:44:28;;;;;;;0.20;0.20;;;;;;;7.13;90.46;100691.28;5037754;28;20028;-79
2021/12/29 05:46:53;;;;;;;0.20;0.20;;;;;;;7.13;90.53;100696.47;5050751;28;20052;-79
2021/12/29 05:49:18;;;;;;;0.20;0.20;;;;;;;7.15;90.46;100692.22;5037311;28;20083;-78
2021/12/29 05:51:44;;;;;;;0.30;0.30;;;;;;;7.15;90.18;100692.22;5036873;28;20029;-79
2021/12/29 05:54:10;;;;;;;0.30;0.30;;;;;;;7.12;89.86;100701.63;5049225;28;20091;-79
2021/12/29 05:56:37;;;;;;;0.20;0.20;;;;;;;7.11;90.21;100699.84;5056557;28;20069;-79
2021/12/29 05:59:03;;;;;;;0.20;0.20;;;;;;;7.08;90.38;100704.91;5056407;28;20261;-78
2021/12/29 06:01:31;;;;;;;0.30;0.30;;;;;;;7.07;90.43;100703.13;5053773;28;20028;-78
2021/12/29 06:03:57;;;;;;;0.30;0.30;;;;;;;7.06;90.36;100698.75;5040398;28;20408;-78
2021/12/29 06:06:22;;;;;;;0.20;0.20;;;;;;;7.04;90.40;100701.28;5035877;28;20120;-80
2021/12/29 06:08:47;;;;;;;0.30;0.30;;;;;;;7.04;90.51;100709.09;5054104;28;20021;-78
2021/12/29 06:11:13;;;;;;;0.20;0.20;;;;;;;7.03;90.60;100709.06;5056363;28;20033;-78
2021/12/29 06:13:38;;;;;;;0.20;0.20;;;;;;;7.04;90.57;100713.44;5056406;28;20025;-79
2021/12/29 06:16:04;;;;;;;0.10;0.10;;;;;;;7.02;90.22;100710.75;5056028;28;20423;-78
2021/12/29 06:18:29;;;;;;;0.30;0.30;;;;;;;7.01;90.67;100708.97;5038233;28;20388;-77
2021/12/29 06:20:54;;;;;;;0.20;0.20;;;;;;;7.00;90.58;100709.81;5036622;28;20025;-78
2021/12/29 06:23:20;;;;;;;0.20;0.20;;;;;;;7.00;90.62;100707.22;5035754;28;20028;-79
2021/12/29 06:25:46;;;;;;;0.20;0.20;;;;;;;6.99;90.58;100705.44;5035758;28;20021;-79
2021/12/29 06:28:11;;;;;;;0.30;0.30;;;;;;;7.00;90.68;100707.22;5036632;28;20044;-78
2021/12/29 06:30:37;;;;;;;0.10;0.10;;;;;;;6.99;90.56;100721.94;5041296;28;20307;-78
2021/12/29 06:33:02;;;;;;;0.17;0.17;;;;;;;7.00;90.64;100722.84;5050161;28;20105;-80
2021/12/29 06:35:27;;;;;;;0.20;0.20;;;;;;;7.00;90.52;100717.63;5047769;28;20049;-79
2021/12/29 06:37:53;;;;;;;0.27;0.27;;;;;;;6.98;90.49;100720.16;5047178;28;20312;-78
2021/12/29 06:40:18;;;;;;;0.20;0.20;;;;;;;6.97;90.61;100730.53;5036943;28;20025;-79
2021/12/29 06:42:44;;;;;;;0.30;0.30;;;;;;;6.98;90.55;100729.69;5037345;28;20022;-79
2021/12/29 06:45:10;;;;;;;0.20;0.20;;;;;;;6.96;90.35;100732.22;5050135;28;20039;-78
2021/12/29 06:47:36;;;;;;;0.60;0.60;;;;;;;6.96;90.36;100731.31;5043972;28;20025;-78
2021/12/29 06:50:02;;;;;;;0.23;0.23;;;;;;;6.94;90.44;100735.59;5043370;28;20403;-78
2021/12/29 06:52:27;;;;;;;0.10;0.10;;;;;;;6.94;90.37;100736.50;5059824;28;20394;-79
2021/12/29 06:54:53;;;;;;;0.37;0.37;;;;;;;6.95;90.40;100745.16;5055912;28;20025;-79
2021/12/29 06:57:18;;;;;;;0.27;0.27;;;;;;;6.93;90.23;100744.22;5039885;28;20029;-79
2021/12/29 06:59:43;;;;;;;0.20;0.20;;;;;;;6.93;90.41;100744.22;5045388;28;20047;-78
2021/12/29 07:02:10;;;;;;;0.30;0.30;;;;;;;6.93;90.25;100749.44;5039863;28;20061;-77
2021/12/29 07:04:36;;;;;;;0.30;0.30;;;;;;;6.90;90.28;100750.19;5039489;28;20105;-78
2021/12/29 07:07:01;;;;;;;0.30;0.30;;;;;;;6.90;90.09;100760.59;5042446;28;20044;-77
2021/12/29 07:09:27;;;;;;;0.20;0.20;;;;;;;6.88;90.07;100762.25;5054851;28;20079;-78
2021/12/29 07:11:52;;;;;;;0.30;0.30;;;;;;;6.90;89.80;100759.72;5044941;28;20458;-80
2021/12/29 07:14:20;;;;;;;0.30;0.30;;;;;;;6.90;90.26;100771.00;5040481;28;20056;-78
2021/12/29 07:16:47;;;;;;;0.20;0.20;;;;;;;6.92;90.34;100776.28;5059219;28;20063;-78
2021/12/29 07:19:13;;;;;;;0.30;0.30;;;;;;;6.93;90.27;100784.19;5055828;28;20037;-77
2021/12/29 07:21:38;;;;;;;0.30;0.30;;;;;;;6.95;90.23;100781.63;5045113;28;20108;-79
2021/12/29 07:24:05;;;;;;;0.20;0.20;;;;;;;6.99;90.67;100780.94;5046137;28;20112;-78
2021/12/29 07:26:30;;;;;;;0.20;0.20;;;;;;;7.00;89.65;100777.50;5044191;28;20330;-77
2021/12/29 07:28:59;;;;;;;0.20;0.20;;;;;;;6.99;89.66;100780.94;5044236;28;20132;-79
2021/12/29 07:31:25;;;;;;;0.30;0.30;;;;;;;6.98;90.00;100781.78;5035964;28;20017;-77
2021/12/29 07:33:51;;;;;;;0.30;0.30;;;;;;;6.96;90.21;100773.88;5044770;28;20111;-78
2021/12/29 07:36:17;;;;;;;0.23;0.23;;;;;;;6.96;90.21;100779.09;5047912;28;20104;-78
2021/12/29 07:38:43;;;;;;;0.20;0.20;;;;;;;6.97;90.21;100780.88;5028026;28;20037;-78
2021/12/29 07:41:10;;;;;;;0.20;0.20;;;;;;;6.96;90.19;100776.50;5046224;28;20131;-77
2021/12/29 07:43:36;;;;;;;0.20;0.20;;;;;;;6.94;90.14;100770.34;5058903;28;20036;-78
2021/12/29 07:46:02;;;;;;;0.20;0.20;;;;;;;6.95;90.22;100772.09;5046830;28;20029;-78
2021/12/29 07:48:30;;;;;;;0.20;0.20;;;;;;;6.94;90.31;100767.72;5038900;28;20105;-78
2021/12/29 07:50:56;;;;;;;0.20;0.20;;;;;;;6.93;90.32;100763.34;5038580;28;20108;-77
2021/12/29 07:53:22;;;;;;;0.20;0.20;;;;;;;6.93;90.31;100762.44;5040715;28;20048;-78
2021/12/29 07:55:47;;;;;;;0.20;0.20;;;;;;;6.91;90.65;100762.38;5041289;28;20382;-78
2021/12/29 07:58:12;;;;;;;0.20;0.20;;;;;;;6.91;90.23;100761.50;5044698;28;20047;-78
2021/12/29 08:00:38;;;;;;;0.10;0.10;;;;;;;6.89;90.34;100764.03;5058002;28;20021;-77
2021/12/29 08:03:03;;;;;;;0.27;0.27;;;;;;;6.91;90.23;100766.72;5052209;28;20021;-79
2021/12/29 08:05:29;;;;;;;0.20;0.20;;;;;;;6.91;90.51;100769.31;5039293;28;20025;-77
2021/12/29 08:07:54;;;;;;;0.30;0.30;;;;;;;6.90;90.22;100764.94;5061367;28;20279;-77
2021/12/29 08:10:19;;;;;;;0.20;0.20;;;;;;;6.88;90.66;100772.66;5057351;28;20028;-77
2021/12/29 08:12:48;;;;;;;0.20;0.20;;;;;;;6.86;90.58;100771.72;5057976;28;20480;-77
2021/12/29 08:15:13;;;;;;;0.20;0.20;;;;;;;6.86;90.77;100772.59;5057698;28;20079;-77
2021/12/29 08:17:40;;;;;;;0.20;0.20;;;;;;;6.86;90.61;100779.53;5057925;28;20025;-76
2021/12/29 08:20:06;;;;;;;0.17;0.17;;;;;;;6.86;90.57;100783.00;5058003;28;20021;-77
2021/12/29 08:22:31;;;;;;;0.20;0.20;;;;;;;6.85;90.60;100767.34;5057625;28;20376;-78
2021/12/29 08:24:57;;;;;;;0.10;0.10;;;;;;;6.85;90.83;100765.63;5057210;28;20062;-78
2021/12/29 08:27:22;;;;;;;0.20;0.20;;;;;;;6.86;90.71;100763.91;5053275;28;20021;-78
2021/12/29 08:29:48;;;;;;;0.20;0.20;;;;;;;6.85;90.58;100769.94;5057824;28;20027;-78
2021/12/29 08:32:13;;;;;;;0.10;0.10;;;;;;;6.85;90.68;100769.94;5057547;28;20463;-78
2021/12/29 08:34:39;;;;;;;0.20;0.20;;;;;;;6.84;90.72;100779.47;5040488;28;20037;-77
2021/12/29 08:37:04;;;;;;;0.20;0.20;;;;;;;6.84;90.70;100783.75;5045285;28;20096;-78
2021/12/29 08:39:30;;;;;;;0.20;0.20;;;;;;;6.85;90.67;100791.66;5037830;28;20307;-78
2021/12/29 08:41:55;;;;;;;0.20;0.20;;;;;;;6.85;90.58;100782.97;5037680;28;20292;-77
2021/12/29 08:44:21;;;;;;;0.00;0.00;;;;;;;6.85;90.63;100783.84;5037663;28;20380;-77
2021/12/29 08:46:47;;;;;;;0.30;0.30;;;;;;;6.85;90.51;100789.03;5036740;28;20079;-78
2021/12/29 08:49:12;;;;;;;0.20;0.20;;;;;;;6.83;90.58;100782.88;5044038;28;20025;-77
2021/12/29 08:51:38;;;;;;;0.20;0.20;;;;;;;6.81;90.41;100773.22;5055314;28;20036;-77
2021/12/29 08:54:04;;;;;;;0.17;0.17;;;;;;;6.78;90.50;100776.59;5052888;28;20013;-78
2021/12/29 08:56:29;;;;;;;0.20;0.20;;;;;;;6.77;90.43;100781.75;5037042;28;20288;-78
2021/12/29 08:58:55;;;;;;;0.10;0.10;;;;;;;6.74;90.43;100772.97;5037623;28;20025;-76
2021/12/29 09:01:24;;;;;;;0.30;0.30;;;;;;;6.72;90.63;100763.31;5037111;28;20025;-76
2021/12/29 09:03:50;;;;;;;0.13;0.13;;;;;;;6.71;90.58;100762.44;5036717;28;20099;-78
2021/12/29 09:06:15;;;;;;;0.30;0.30;;;;;;;6.69;90.73;100764.09;5045393;28;20037;-78
2021/12/29 09:08:41;;;;;;;0.20;0.20;;;;;;;6.71;90.59;100765.03;5051812;28;20021;-77
2021/12/29 09:11:07;;;;;;;0.17;0.17;;;;;;;6.71;90.74;100771.94;5046651;28;20112;-77
2021/12/29 09:13:33;;;;;;;0.20;0.20;;;;;;;6.71;90.57;100764.13;5055050;28;20027;-77
2021/12/29 09:15:58;;;;;;;0.30;0.30;;;;;;;6.72;90.56;100765.91;5048261;28;20112;-77
2021/12/29 09:18:28;;;;;;;0.30;0.30;;;;;;;6.73;90.63;100755.56;5038889;28;20021;-78
2021/12/29 09:20:56;;;;;;;0.10;0.10;;;;;;;6.74;90.68;100746.94;5039858;28;20376;-77
2021/12/29 09:23:21;;;;;;;0.10;0.10;;;;;;;6.78;90.65;100757.50;5038831;28;20057;-78
2021/12/29 09:25:47;;;;;;;0.10;0.10;;;;;;;6.81;90.60;100758.53;5047995;28;20100;-78
2021/12/29 09:28:15;;;;;;;0.20;0.20;;;;;;;6.83;90.68;100764.66;5043320;28;20053;-77
2021/12/29 09:30:43;;;;;;;0.10;0.10;;;;;;;6.91;90.71;100774.53;5042602;28;20029;-76
2021/12/29 09:33:08;;;;;;;0.30;0.30;;;;;;;6.95;90.40;100782.53;5061388;28;20028;-77
2021/12/29 09:35:34;;;;;;;0.20;0.20;;;;;;;6.97;90.23;100778.25;5058922;28;20024;-76
2021/12/29 09:37:59;;;;;;;0.30;0.30;;;;;;;6.97;90.37;100766.97;5052763;28;20037;-78
2021/12/29 09:40:25;;;;;;;0.20;0.20;;;;;;;6.98;90.24;100772.22;5050712;28;20044;-77
2021/12/29 09:42:52;;;;;;;0.20;0.20;;;;;;;7.01;90.00;100763.66;5048331;28;20044;-79
2021/12/29 09:45:19;;;;;;;0.20;0.20;;;;;;;6.99;89.98;100762.72;5054151;28;20302;-76
2021/12/29 09:47:44;;;;;;;0.13;0.13;;;;;;;6.98;89.69;100758.34;5049778;28;20024;-75
2021/12/29 09:50:13;;;;;;;0.30;0.30;;;;;;;6.97;89.55;100753.97;5036931;28;20034;-77
2021/12/29 09:52:39;;;;;;;0.30;0.30;;;;;;;6.95;89.58;100750.38;5046368;28;20025;-78
2021/12/29 09:55:07;;;;;;;0.30;0.30;;;;;;;6.95;89.42;100747.78;5056053;28;20024;-76
2021/12/29 09:57:33;;;;;;;0.40;0.40;;;;;;;6.95;89.13;100739.97;5052565;28;20284;-77
2021/12/29 09:59:59;;;;;;;0.30;0.30;;;;;;;6.94;89.01;100741.69;5056546;28;20078;-76
2021/12/29 10:02:24;;;;;;;0.20;0.20;;;;;;;6.95;88.84;100750.38;5056604;28;20052;-75
2021/12/29 10:04:50;;;;;;;0.30;0.30;;;;;;;6.97;88.83;100734.00;5055617;28;20024;-77
2021/12/29 10:07:20;;;;;;;0.30;0.30;;;;;;;6.97;88.74;100734.00;5051353;28;20021;-77
2021/12/29 10:09:46;;;;;;;0.40;0.40;;;;;;;6.98;88.65;100737.50;5056412;28;20072;-77
2021/12/29 10:12:20;;;;;;;0.40;0.40;;;;;;;7.03;88.46;100720.34;5045793;28;20312;-77
2021/12/29 10:14:53;;;;;;;0.30;0.30;;;;;;;7.01;87.93;100714.19;5051644;28;20102;-77
2021/12/29 10:17:21;;;;;;;0.30;0.30;;;;;;;7.03;88.31;100717.75;5055057;28;20037;-77
2021/12/29 10:19:46;;;;;;;0.30;0.30;;;;;;;7.07;88.24;100722.25;5054067;28;20089;-76
2021/12/29 10:22:22;;;;;;;0.30;0.30;;;;;;;7.11;87.99;100713.72;5058367;28;20029;-78
2021/12/29 10:24:48;;;;;;;0.30;0.30;;;;;;;7.13;87.63;100713.81;5058743;28;20048;-75
2021/12/29 10:27:18;;;;;;;0.17;0.17;;;;;;;7.12;87.60;100712.03;5048279;28;20433;-77
2021/12/29 10:29:44;;;;;;;0.30;0.30;;;;;;;7.18;87.18;100712.28;5049322;28;20024;-76
2021/12/29 10:32:09;;;;;;;0.40;0.40;;;;;;;7.16;87.06;100716.50;5048502;28;20021;-77
2021/12/29 10:34:34;;;;;;;0.40;0.40;;;;;;;7.17;87.01;100720.03;5049157;28;20033;-76
2021/12/29 10:37:04;;;;;;;0.30;0.30;;;;;;;7.21;86.97;100717.59;5048507;28;20025;-78
2021/12/29 10:39:40;;;;;;;0.40;0.40;;;;;;;7.19;87.26;100724.47;5047787;28;20123;-77
2021/12/29 10:42:14;;;;;;;0.47;0.47;;;;;;;7.18;87.26;100725.31;5045724;28;20028;-76
2021/12/29 10:44:43;;;;;;;0.40;0.40;;;;;;;7.20;87.12;100735.75;5052461;28;20025;-78
2021/12/29 10:47:22;;;;;;;0.30;0.30;;;;;;;7.23;86.79;100736.78;5046319;28;20118;-76
2021/12/29 10:49:49;;;;;;;0.40;0.40;;;;;;;7.23;86.54;100723.75;5040695;28;20053;-76
2021/12/29 10:52:14;;;;;;;0.30;0.30;;;;;;;7.21;86.58;100729.75;5048318;28;20037;-77
2021/12/29 10:54:40;;;;;;;0.40;0.40;;;;;;;7.15;87.35;100726.06;5048447;28;20032;-76
2021/12/29 10:57:08;;;;;;;0.30;0.30;;;;;;;7.10;87.29;100727.56;5049407;28;20096;-76
2021/12/29 10:59:37;;;;;;;0.40;0.40;;;;;;;7.06;87.54;100725.69;5049234;28;20021;-76
2021/12/29 11:02:04;;;;;;;0.40;0.40;;;;;;;7.07;87.80;100717.06;5049510;28;20021;-76
2021/12/29 11:04:29;;;;;;;0.33;0.33;;;;;;;7.05;87.94;100691.78;5046047;28;20099;-77
2021/12/29 11:06:57;;;;;;;0.30;0.30;;;;;;;7.10;87.73;100677.22;5046484;28;20017;-77
2021/12/29 11:09:25;;;;;;;0.30;0.30;;;;;;;7.13;87.83;100673.03;5047866;28;20044;-77
2021/12/29 11:11:51;;;;;;;0.50;0.50;;;;;;;7.13;87.73;100678.25;5045104;28;20037;-77
2021/12/29 11:14:21;;;;;;;0.17;0.17;;;;;;;7.20;87.32;100681.97;5047765;28;20427;-76
2021/12/29 11:17:03;;;;;;;0.40;0.40;;;;;;;7.22;87.28;100687.25;5048140;28;20128;-77
2021/12/29 11:19:29;;;;;;;0.40;0.40;;;;;;;7.25;87.26;100676.94;5043644;28;20033;-78
2021/12/29 11:22:15;;;;;;;0.40;0.40;;;;;;;7.25;87.60;100675.25;5039269;28;20296;-78
2021/12/29 11:24:42;;;;;;;0.40;0.40;;;;;;;7.31;87.22;100663.25;5039807;28;20072;-76
2021/12/29 11:27:16;;;;;;;0.30;0.30;;;;;;;7.27;87.31;100657.94;5054097;28;20035;-76
2021/12/29 11:29:53;;;;;;;0.20;0.20;;;;;;;7.24;87.51;100643.91;5038765;28;20025;-77
2021/12/29 11:32:21;;;;;;;0.40;0.40;;;;;;;7.27;87.65;100649.22;5039185;28;20247;-76
2021/12/29 11:34:57;;;;;;;0.30;0.30;;;;;;;7.27;87.69;100649.22;5039175;28;20060;-78